Tuesday, December 18, 2018, 12:53 PM EST
Back to Local

KWST, Westerly State Airport

Location: Westerly, RI, United States Lat: 41.35
Local Time: 12:53 PM EST (17:53 GMT) Lon: -71.8
Time Zone: US/Eastern Elev: 82 ft

Show me the last for .
Show Decoded

2018-12-18 11:53 METAR KWST 181653Z AUTO 34013G27KT 10SM CLR 01/M12 A2989 RMK AO2 PK WND
                 34030/1600 SLP122 T00061122 =
2018-12-18 10:53 METAR KWST 181553Z AUTO 33015G32KT 10SM CLR M01/M13 A2989 RMK AO2 PK WND
                 32033/1459 SLP120 T10061128 =
2018-12-18 09:53 METAR KWST 181453Z AUTO 32013G34KT 10SM CLR M01/M13 A2989 RMK AO2 PK WND
                 33034/1446 SLP122 T10111128 51024 =
2018-12-18 08:53 METAR KWST 181353Z AUTO 31015G25KT 280V350 10SM CLR M02/M13 A2987 RMK AO2 PK WND
                 28027/1340 SLP116 T10221128 =
2018-12-18 07:53 METAR KWST 181253Z AUTO 32015G24KT 10SM CLR M03/M13 A2985 RMK AO2 PK WND
                 31030/1205 SLP107 T10281128 =
2018-12-18 06:53 METAR KWST 181153Z AUTO 30012G20KT 280V340 10SM CLR M03/M13 A2982 RMK AO2 PK WND
                 30026/1121 SLP097 T10281128 10044 21028 51038 =
2018-12-18 05:53 METAR KWST 181053Z AUTO 32014G22KT 290V350 10SM CLR M02/M12 A2979 RMK AO2 PK WND
                 32031/1000 SLP087 T10221117 =
2018-12-18 04:53 METAR KWST 180953Z AUTO 32012G24KT 270V350 10SM CLR M01/M10 A2974 RMK AO2 PK WND
                 29032/0906 SLP070 T10111100 =
2018-12-18 03:53 METAR KWST 180853Z AUTO 30010G22KT 270V340 10SM SCT041 01/M08 A2971 RMK AO2 PK
                 WND 29027/0809 SLP059 T00061078 53022 =
2018-12-18 02:53 METAR KWST 180753Z AUTO 29012G28KT 10SM OVC047 03/M07 A2968 RMK AO2 PK WND
                 29028/0748 SLP049 T00281072 =
2018-12-18 01:53 METAR KWST 180653Z AUTO 29009G24KT 10SM BKN070 03/M07 A2967 RMK AO2 SLP047
                 T00331067 =
2018-12-18 00:53 METAR KWST 180553Z AUTO 30010G26KT 270V330 10SM FEW040 BKN050 OVC070 04/M05
                 A2964 RMK AO2 PK WND 27026/0541 RAB05E28 SLP038 P0000 60000 T00441050 10061
                 20044 56006 =
2018-12-17 23:53 METAR KWST 180453Z AUTO 29010G18KT 270V340 10SM FEW036 BKN049 OVC080 05/M02
                 A2964 RMK AO2 RAB0354E16 SLP038 P0000 T00501017 400780039 =
2018-12-17 22:53 METAR KWST 180353Z AUTO 27007KT 10SM SCT037 BKN047 OVC080 05/M01 A2965 RMK AO2
                 RAB23E33 SLP040 P0000 T00501011 =
2018-12-17 21:53 METAR KWST 180253Z AUTO 27008KT 10SM OVC080 06/M02 A2966 RMK AO2 SLP043
                 T00561017 50005 =
2018-12-17 20:53 METAR KWST 180153Z AUTO 27005KT 10SM OVC080 05/M02 A2966 RMK AO2 SLP044
                 T00501017 =
2018-12-17 19:53 METAR KWST 180053Z AUTO VRB05KT 10SM CLR 05/M02 A2965 RMK AO2 SLP042 T00501022 =
2018-12-17 18:53 METAR KWST 172353Z AUTO 28008KT 10SM OVC060 06/M03 A2964 RMK AO2 SLP038
                 T00611028 10078 20061 53016 =
2018-12-17 17:53 METAR KWST 172253Z AUTO 29009G19KT 260V360 10SM FEW065 07/M03 A2962 RMK AO2
                 SLP031 T00671028 =
2018-12-17 16:53 METAR KWST 172153Z AUTO 28008G21KT 10SM FEW043 OVC060 07/M02 A2961 RMK AO2
                 SLP027 T00721017 =
2018-12-17 15:53 METAR KWST 172053Z AUTO 26006KT 10SM SCT039 BKN047 OVC060 07/01 A2960 RMK AO2
                 SLP023 T00720006 53001 =
2018-12-17 14:53 METAR KWST 171953Z AUTO 27004KT 10SM OVC055 07/01 A2959 RMK AO2 SLP019 T00720006
                 =
2018-12-17 14:38 METAR KWST 171938Z AUTO VRB05KT 10SM SCT030 OVC050 07/01 A2959 RMK AO2 T00720006
                 =
2018-12-17 14:10 METAR KWST 171910Z AUTO VRB05KT 10SM OVC027 07/01 A2959 RMK AO2 T00670011 =
2018-12-17 13:53 METAR KWST 171853Z AUTO VRB06KT 10SM OVC030 07/01 A2959 RMK AO2 SLP021 T00720011
                 =
2018-12-17 13:49 METAR KWST 171849Z AUTO 31007KT 10SM OVC030 07/01 A2959 RMK AO2 =

Support USWX by starting your Amazon purchase here.